Terminal Aerodrome Forecast
Issued by NWS Kansas City/Pleasant Hill, MO

Home | Current Version | Previous Version | Text Only | Print | Product List | Glossary On
Versions: 1 2 3 4 5 6 7 8 9 10 11 12 13
000
FTUS43 KEAX 222327
TAFMCI
TAF
KMCI 222327Z 2300/2324 32005KT P6SM FEW150
      TEMPO 2301/2304 P6SM TS BKN050CB
     FM230400 01007KT P6SM VCTS BKN060CB
     FM230600 33004KT P6SM BKN200=

USA.gov is the U.S. government's official web portal to all federal, state and local government web resources and services.